Time;durP1;ratioP1;P1;durP2;ratioP2;P2;SDS_P1;SDS_P2;PMS_P1;PMS_P2;Temp;Humidity;BMP_temperature;BMP_pressure;BME280_temperature;BME280_humidity;BME280_pressure;Samples;Min_cycle;Max_cycle;Signal;HPM_P1;HPM_P2
2023/09/30 00:01:10;;;;;;;;;;;;;;;29.32;64.87;101169.91;4995460;28;68822;-41
2023/09/30 00:03:40;;;;;;;;;;;;;;;29.29;64.71;101163.03;5013600;28;65299;-42
2023/09/30 00:06:11;;;;;;;;;;;;;;;29.28;65.24;101161.38;5018597;28;70131;-42
2023/09/30 00:08:41;;;;;;;;;;;;;;;29.29;64.89;101164.91;5014511;28;65423;-42
2023/09/30 00:11:11;;;;;;;;;;;;;;;29.28;64.89;101161.38;5018738;28;72091;-41
2023/09/30 00:13:41;;;;;;;;;;;;;;;29.27;65.69;101156.97;5015284;28;66837;-38
2023/09/30 00:16:11;;;;;;;;;;;;;;;29.28;65.94;101161.38;5011543;28;69552;-38
2023/09/30 00:18:41;;;;;;;;;;;;;;;29.31;65.91;101160.97;5012595;28;66183;-39
2023/09/30 00:21:11;;;;;;;;;;;;;;;29.31;65.96;101165.50;5013101;28;68646;-38
2023/09/30 00:23:41;;;;;;;;;;;;;;;29.32;66.43;101165.31;5009056;28;67137;-38
2023/09/30 00:26:11;;;;;;;;;;;;;;;29.31;65.72;101163.66;5005320;28;70456;-39
2023/09/30 00:28:41;;;;;;;;;;;;;;;29.32;66.24;101154.50;5009336;28;65899;-38
2023/09/30 00:31:10;;;;;;;;;;;;;;;29.33;66.76;101155.34;5004637;28;69575;-39
2023/09/30 00:33:40;;;;;;;;;;;;;;;29.32;69.44;101169.91;5012142;28;65607;-39
2023/09/30 00:36:11;;;;;;;;;;;;;;;29.24;72.60;101181.72;4990664;28;70600;-37
2023/09/30 00:38:41;;;;;;;;;;;;;;;29.06;74.83;101181.41;5008974;28;66338;-38
2023/09/30 00:41:11;;;;;;;;;;;;;;;29.12;74.76;101197.66;4991343;28;69805;-38
2023/09/30 00:43:41;;;;;;;;;;;;;;;29.13;71.21;101199.31;5010903;28;67065;-38
2023/09/30 00:46:10;;;;;;;;;;;;;;;29.15;69.93;101196.44;5015145;28;70749;-38
2023/09/30 00:48:40;;;;;;;;;;;;;;;29.17;68.80;101194.38;5015154;28;66229;-39
2023/09/30 00:51:10;;;;;;;;;;;;;;;29.20;68.94;101204.78;5014202;28;69696;-38
2023/09/30 00:53:41;;;;;;;;;;;;;;;29.22;67.82;101191.88;5009438;28;66914;-38
2023/09/30 00:56:11;;;;;;;;;;;;;;;29.24;67.55;101183.59;5006935;28;69514;-38
2023/09/30 00:58:41;;;;;;;;;;;;;;;29.26;67.20;101182.34;5019983;28;65762;-38
2023/09/30 01:01:11;;;;;;;;;;;;;;;29.27;67.19;101180.47;5012194;28;70171;-37
2023/09/30 01:03:41;;;;;;;;;;;;;;;29.29;67.25;101190.03;5014045;28;66154;-38
2023/09/30 01:06:12;;;;;;;;;;;;;;;29.31;67.48;101187.13;5010616;28;70879;-38
2023/09/30 01:08:42;;;;;;;;;;;;;;;29.31;67.56;101184.44;5007488;28;66933;-38
2023/09/30 01:11:13;;;;;;;;;;;;;;;29.31;67.55;101185.28;5014782;28;70223;-38
2023/09/30 01:13:44;;;;;;;;;;;;;;;29.32;67.09;101186.94;5002610;28;65630;-38
2023/09/30 01:16:14;;;;;;;;;;;;;;;29.33;67.58;101188.59;5019517;28;69181;-39
2023/09/30 01:18:44;;;;;;;;;;;;;;;29.35;67.47;101186.53;5000200;28;65495;-38
2023/09/30 01:21:15;;;;;;;;;;;;;;;29.35;67.88;101202.75;5004014;28;70708;-38
2023/09/30 01:23:46;;;;;;;;;;;;;;;29.37;67.75;101216.91;5012036;28;65708;-39
2023/09/30 01:26:16;;;;;;;;;;;;;;;29.38;67.42;101223.13;5009354;28;69911;-41
2023/09/30 01:28:48;;;;;;;;;;;;;;;29.38;67.50;101223.97;5011241;28;65612;-41
2023/09/30 01:31:18;;;;;;;;;;;;;;;29.38;67.72;101223.97;5009255;28;70989;-41
2023/09/30 01:33:48;;;;;;;;;;;;;;;29.39;67.43;101239.16;5009167;28;65719;-40
2023/09/30 01:36:18;;;;;;;;;;;;;;;29.24;67.51;101211.44;5009392;28;70104;-40
2023/09/30 01:38:48;;;;;;;;;;;;;;;29.42;67.53;101229.81;5012626;28;65500;-40
2023/09/30 01:41:18;;;;;;;;;;;;;;;29.43;68.06;101217.94;5015532;28;70558;-40
2023/09/30 01:43:48;;;;;;;;;;;;;;;29.44;68.03;101226.88;5005781;28;66901;-40
2023/09/30 01:46:18;;;;;;;;;;;;;;;29.44;68.22;101213.38;5005046;28;70471;-39
2023/09/30 01:48:48;;;;;;;;;;;;;;;29.45;67.80;101213.19;5007469;28;66684;-40
2023/09/30 01:51:17;;;;;;;;;;;;;;;29.46;68.26;101214.00;4995933;28;69204;-40
2023/09/30 01:53:48;;;;;;;;;;;;;;;29.46;67.98;101211.31;5008481;28;66012;-39
2023/09/30 01:56:18;;;;;;;;;;;;;;;29.47;68.19;101212.97;4993854;28;70010;-39
2023/09/30 01:58:48;;;;;;;;;;;;;;;29.48;67.86;101217.34;4992070;28;67854;-42
2023/09/30 02:01:18;;;;;;;;;;;;;;;29.49;68.30;101205.50;4999300;28;70376;-39
2023/09/30 02:03:49;;;;;;;;;;;;;;;29.50;68.10;101212.56;5015812;28;66674;-40
2023/09/30 02:06:19;;;;;;;;;;;;;;;29.50;68.42;101199.88;5003076;28;69544;-40
2023/09/30 02:08:49;;;;;;;;;;;;;;;29.51;67.90;101203.44;5006963;28;66632;-39
2023/09/30 02:11:18;;;;;;;;;;;;;;;29.46;74.12;101208.59;5010594;28;70549;-40
2023/09/30 02:13:49;;;;;;;;;;;;;;;29.39;74.87;101214.84;5011458;28;66099;-39
2023/09/30 02:16:18;;;;;;;;;;;;;;;29.35;75.84;101220.84;5003336;28;70380;-41
2023/09/30 02:18:50;;;;;;;;;;;;;;;29.30;76.38;101213.31;5016739;28;65737;-40
2023/09/30 02:21:21;;;;;;;;;;;;;;;29.27;76.83;101221.84;5009331;28;69552;-38
2023/09/30 02:23:54;;;;;;;;;;;;;;;29.26;77.47;101217.47;5012788;28;67054;-40
2023/09/30 02:26:27;;;;;;;;;;;;;;;29.23;77.36;101201.66;4987870;28;70983;-41
2023/09/30 02:28:57;;;;;;;;;;;;;;;29.22;77.40;101197.28;4998037;28;65925;-40
2023/09/30 02:31:27;;;;;;;;;;;;;;;29.25;78.04;101191.47;5012422;28;70578;-41
2023/09/30 02:33:57;;;;;;;;;;;;;;;29.26;78.00;101187.75;5008107;28;66988;-39
2023/09/30 02:36:27;;;;;;;;;;;;;;;29.32;75.93;101186.13;5018930;28;70166;-40
2023/09/30 02:38:58;;;;;;;;;;;;;;;29.36;75.42;101182.81;5000055;28;66094;-39
2023/09/30 02:41:27;;;;;;;;;;;;;;;29.40;74.98;101178.66;5014013;28;69270;-40
2023/09/30 02:43:57;;;;;;;;;;;;;;;29.45;76.03;101171.78;5008689;28;66949;-40
2023/09/30 02:46:30;;;;;;;;;;;;;;;29.49;75.64;101175.78;5010665;28;69411;-40
2023/09/30 02:49:02;;;;;;;;;;;;;;;29.53;75.09;101171.59;5008661;28;66993;-39
2023/09/30 02:51:32;;;;;;;;;;;;;;;29.55;75.43;101169.53;5016540;28;70178;-42
2023/09/30 02:54:03;;;;;;;;;;;;;;;29.56;75.10;101158.53;5016327;28;66949;-39
2023/09/30 02:56:32;;;;;;;;;;;;;;;29.61;75.40;101161.47;5005569;28;70528;-41
2023/09/30 02:59:03;;;;;;;;;;;;;;;29.63;76.24;101155.88;5014358;28;65811;-40
2023/09/30 03:01:33;;;;;;;;;;;;;;;29.65;75.09;101156.50;5012556;28;69459;-41
2023/09/30 03:04:06;;;;;;;;;;;;;;;29.66;76.50;101155.44;5015286;28;66447;-40
2023/09/30 03:06:39;;;;;;;;;;;;;;;29.67;75.67;101146.31;5013704;28;69760;-39
2023/09/30 03:09:09;;;;;;;;;;;;;;;29.66;76.09;101154.63;4993388;28;66423;-40
2023/09/30 03:11:39;;;;;;;;;;;;;;;29.61;77.07;101147.94;4999818;28;69982;-40
2023/09/30 03:14:13;;;;;;;;;;;;;;;29.59;76.90;101143.78;5022404;28;66579;-40
2023/09/30 03:16:44;;;;;;;;;;;;;;;29.60;75.13;101129.22;5014818;28;70772;-41
2023/09/30 03:19:16;;;;;;;;;;;;;;;29.54;76.81;101120.06;5020536;28;66408;-40
2023/09/30 03:21:46;;;;;;;;;;;;;;;29.55;76.99;101127.13;5023673;28;69481;-40
2023/09/30 03:24:16;;;;;;;;;;;;;;;29.52;76.81;101110.47;5027932;28;66540;-41
2023/09/30 03:26:46;;;;;;;;;;;;;;;29.53;75.98;101102.19;5020650;28;70473;-39
2023/09/30 03:29:16;;;;;;;;;;;;;;;29.56;76.36;101111.72;5021379;28;65950;-40
2023/09/30 03:31:45;;;;;;;;;;;;;;;29.57;75.78;101105.31;5022850;28;70202;-40
2023/09/30 03:34:16;;;;;;;;;;;;;;;29.57;76.40;101097.19;5011883;28;66047;-39
2023/09/30 03:36:46;;;;;;;;;;;;;;;29.59;77.38;101100.53;5012207;28;70272;-40
2023/09/30 03:39:17;;;;;;;;;;;;;;;29.63;76.10;101090.97;5014881;28;65471;-40
2023/09/30 03:41:47;;;;;;;;;;;;;;;29.64;75.71;101095.34;5023810;28;70778;-40
2023/09/30 03:44:17;;;;;;;;;;;;;;;29.66;75.01;101101.38;5013110;28;66937;-40
2023/09/30 03:46:47;;;;;;;;;;;;;;;29.68;74.77;101096.59;5020471;28;70708;-40
2023/09/30 03:49:19;;;;;;;;;;;;;;;29.69;75.34;101098.25;5005303;28;66595;-39
2023/09/30 03:51:50;;;;;;;;;;;;;;;29.71;74.94;101100.78;5005894;28;69275;-40
2023/09/30 03:54:20;;;;;;;;;;;;;;;29.70;75.42;101086.44;5022581;28;67331;-39
2023/09/30 03:56:50;;;;;;;;;;;;;;;29.73;75.12;101091.41;5029922;28;70509;-40
2023/09/30 03:59:20;;;;;;;;;;;;;;;29.76;74.54;101085.59;5021559;28;65952;-41
2023/09/30 04:01:50;;;;;;;;;;;;;;;29.80;75.15;101080.59;5009804;28;72044;-40
2023/09/30 04:04:21;;;;;;;;;;;;;;;29.83;74.23;101086.41;5017665;28;66606;-39
2023/09/30 04:06:51;;;;;;;;;;;;;;;29.86;74.59;101068.09;5017551;28;70206;-40
2023/09/30 04:09:21;;;;;;;;;;;;;;;29.90;75.47;101072.06;5011732;28;66596;-41
2023/09/30 04:11:50;;;;;;;;;;;;;;;29.93;75.06;101068.94;5010571;28;70582;-42
2023/09/30 04:14:21;;;;;;;;;;;;;;;29.97;75.22;101059.34;5016394;28;66270;-42
2023/09/30 04:16:53;;;;;;;;;;;;;;;30.01;75.08;101049.78;5008667;28;69610;-41
2023/09/30 04:19:24;;;;;;;;;;;;;;;30.03;75.32;101050.41;5023015;28;66933;-40
2023/09/30 04:21:54;;;;;;;;;;;;;;;30.07;74.60;101032.72;5010844;28;70718;-41
2023/09/30 04:24:23;;;;;;;;;;;;;;;30.08;74.98;101042.47;5012571;28;66791;-43
2023/09/30 04:26:57;;;;;;;;;;;;;;;30.11;75.42;101028.53;5017553;28;70110;-40
2023/09/30 04:29:27;;;;;;;;;;;;;;;30.14;75.21;101027.28;5015159;28;66943;-40
2023/09/30 04:31:57;;;;;;;;;;;;;;;30.19;74.83;101020.19;5009662;28;69763;-44
2023/09/30 04:34:27;;;;;;;;;;;;;;;30.23;73.76;100999.00;5020379;28;66750;-41
2023/09/30 04:36:57;;;;;;;;;;;;;;;30.30;73.49;100999.78;5013808;28;69342;-41
2023/09/30 04:39:27;;;;;;;;;;;;;;;30.35;73.14;101007.28;5021368;28;66240;-40
2023/09/30 04:42:01;;;;;;;;;;;;;;;30.41;72.86;101006.41;5011460;28;69239;-41
2023/09/30 04:44:31;;;;;;;;;;;;;;;30.45;72.43;100996.81;5019992;28;66172;-40
2023/09/30 04:47:00;;;;;;;;;;;;;;;30.49;72.84;100992.66;5002849;28;69403;-41
2023/09/30 04:49:30;;;;;;;;;;;;;;;30.54;72.31;100995.53;5015708;28;66571;-40
2023/09/30 04:52:00;;;;;;;;;;;;;;;30.57;72.60;100991.56;5021001;28;69886;-40
2023/09/30 04:54:30;;;;;;;;;;;;;;;30.60;72.56;101000.09;5008506;28;66288;-40
2023/09/30 04:57:00;;;;;;;;;;;;;;;30.51;72.45;100968.91;5004301;28;70324;-40
2023/09/30 04:59:29;;;;;;;;;;;;;;;30.68;72.56;100982.78;5011842;28;65227;-40
2023/09/30 05:02:00;;;;;;;;;;;;;;;30.71;72.36;100988.56;5014714;28;70264;-40
2023/09/30 05:04:30;;;;;;;;;;;;;;;30.75;72.02;100980.00;5024394;28;66461;-40
2023/09/30 05:07:00;;;;;;;;;;;;;;;30.78;72.49;100974.16;5020411;28;70457;-40
2023/09/30 05:09:29;;;;;;;;;;;;;;;30.81;73.06;100976.47;5019644;28;66900;-39
2023/09/30 05:11:59;;;;;;;;;;;;;;;30.83;72.83;100977.91;5018357;28;69735;-41
2023/09/30 05:14:29;;;;;;;;;;;;;;;30.84;72.60;100967.91;5012674;28;65396;-40
2023/09/30 05:16:59;;;;;;;;;;;;;;;30.82;73.20;100960.00;5015551;28;70636;-41
2023/09/30 05:19:29;;;;;;;;;;;;;;;30.90;72.38;100967.06;5018635;28;66324;-42
2023/09/30 05:22:01;;;;;;;;;;;;;;;30.93;72.23;100961.19;5015984;28;70321;-40
2023/09/30 05:24:30;;;;;;;;;;;;;;;30.95;72.11;100948.25;5019407;28;66606;-39
2023/09/30 05:27:01;;;;;;;;;;;;;;;30.99;71.79;100954.91;5014549;28;69768;-40
2023/09/30 05:29:33;;;;;;;;;;;;;;;31.01;71.88;100944.69;5019526;28;67029;-40
2023/09/30 05:32:03;;;;;;;;;;;;;;;31.03;71.75;100934.44;5017048;28;69793;-40
2023/09/30 05:34:33;;;;;;;;;;;;;;;31.06;71.45;100933.16;5017698;28;66237;-41
2023/09/30 05:37:04;;;;;;;;;;;;;;;31.07;71.19;100924.81;5018380;28;70190;-41
2023/09/30 05:39:34;;;;;;;;;;;;;;;31.12;71.38;100907.88;5017454;28;66921;-40
2023/09/30 05:42:06;;;;;;;;;;;;;;;31.15;71.31;100915.59;5019435;28;69157;-40
2023/09/30 05:44:36;;;;;;;;;;;;;;;31.16;70.69;100901.81;5011560;28;66715;-40
2023/09/30 05:47:06;;;;;;;;;;;;;;;31.21;70.57;100911.16;5013174;28;70800;-39
2023/09/30 05:49:36;;;;;;;;;;;;;;;31.22;70.67;100897.38;5014555;28;66470;-39
2023/09/30 05:52:06;;;;;;;;;;;;;;;31.26;70.54;100900.47;5016464;28;69126;-39
2023/09/30 05:54:37;;;;;;;;;;;;;;;31.29;70.46;100897.34;5014711;28;66975;-40
2023/09/30 05:57:10;;;;;;;;;;;;;;;31.30;70.62;100891.69;5017383;28;69618;-41
2023/09/30 05:59:39;;;;;;;;;;;;;;;31.33;70.50;100885.00;5019295;28;65602;-40
2023/09/30 06:02:10;;;;;;;;;;;;;;;31.35;69.88;100888.31;5020181;28;69806;-41
2023/09/30 06:04:40;;;;;;;;;;;;;;;31.37;69.87;100887.06;5015255;28;66435;-40
2023/09/30 06:07:11;;;;;;;;;;;;;;;31.40;70.02;100880.38;5015923;28;69435;-39
2023/09/30 06:09:41;;;;;;;;;;;;;;;31.41;69.67;100882.03;5026054;28;66285;-40
2023/09/30 06:12:11;;;;;;;;;;;;;;;31.42;69.70;100883.66;5028646;28;70264;-40
2023/09/30 06:14:41;;;;;;;;;;;;;;;31.25;67.01;100874.44;5011573;28;66552;-40
2023/09/30 06:17:11;;;;;;;;;;;;;;;31.12;67.78;100868.09;5026040;28;70275;-40
2023/09/30 06:19:41;;;;;;;;;;;;;;;31.08;68.15;100866.88;5020347;28;65795;-42
2023/09/30 06:22:11;;;;;;;;;;;;;;;31.05;68.21;100863.78;5011537;28;69852;-41
2023/09/30 06:24:40;;;;;;;;;;;;;;;31.03;69.02;100858.56;4992755;28;67067;-41
2023/09/30 06:27:13;;;;;;;;;;;;;;;31.01;68.90;100852.56;5016447;28;70286;-41
2023/09/30 06:29:43;;;;;;;;;;;;;;;31.00;68.84;100853.59;5030224;28;66417;-40
2023/09/30 06:32:13;;;;;;;;;;;;;;;30.99;68.80;100846.53;5014054;28;70014;-41
2023/09/30 06:34:43;;;;;;;;;;;;;;;30.99;69.11;100843.81;5036257;28;65933;-40
2023/09/30 06:37:13;;;;;;;;;;;;;;;31.02;69.39;100842.56;5013718;28;70315;-40
2023/09/30 06:39:43;;;;;;;;;;;;;;;31.02;69.23;100835.25;5023129;28;65301;-41
2023/09/30 06:42:13;;;;;;;;;;;;;;;31.03;69.37;100836.91;5019733;28;70757;-39
2023/09/30 06:44:43;;;;;;;;;;;;;;;31.04;69.36;100833.16;5018855;28;65660;-39
2023/09/30 06:47:13;;;;;;;;;;;;;;;31.06;69.52;100827.50;5014492;28;70265;-41
2023/09/30 06:49:43;;;;;;;;;;;;;;;31.06;69.23;100814.78;5022756;28;65443;-40
2023/09/30 06:52:13;;;;;;;;;;;;;;;31.09;69.26;100814.34;5019754;28;70602;-40
2023/09/30 06:54:43;;;;;;;;;;;;;;;31.11;69.08;100812.22;5015934;28;66437;-39
2023/09/30 06:57:13;;;;;;;;;;;;;;;31.12;69.31;100807.63;5015397;28;70361;-40
2023/09/30 06:59:42;;;;;;;;;;;;;;;31.14;68.87;100806.34;5001051;28;65527;-39
2023/09/30 07:02:12;;;;;;;;;;;;;;;31.15;69.14;100797.19;5010450;28;69729;-40
2023/09/30 07:04:42;;;;;;;;;;;;;;;31.19;69.10;100797.56;4999378;28;66556;-39
2023/09/30 07:07:12;;;;;;;;;;;;;;;31.20;69.06;100792.97;5021790;28;69803;-40
2023/09/30 07:09:44;;;;;;;;;;;;;;;31.22;68.98;100790.88;5028125;28;66442;-41
2023/09/30 07:12:13;;;;;;;;;;;;;;;31.23;68.71;100797.94;5017331;28;69551;-43
2023/09/30 07:14:43;;;;;;;;;;;;;;;31.24;68.80;100788.78;5020544;28;66610;-40
2023/09/30 07:17:14;;;;;;;;;;;;;;;31.25;68.70;100787.72;5020433;28;70337;-40
2023/09/30 07:19:43;;;;;;;;;;;;;;;31.26;68.81;100783.94;5028820;28;66443;-40
2023/09/30 07:22:13;;;;;;;;;;;;;;;31.26;68.84;100781.22;5027466;28;70078;-39
2023/09/30 07:24:47;;;;;;;;;;;;;;;31.28;69.07;100784.56;5009518;28;67041;-39
2023/09/30 07:27:17;;;;;;;;;;;;;;;31.29;68.54;100780.81;5020353;28;69258;-41
2023/09/30 07:29:55;;;;;;;;;;;;;;;31.27;68.80;100782.91;5021438;28;66884;-40
2023/09/30 07:32:25;;;;;;;;;;;;;;;31.29;68.68;100775.38;5015104;28;69882;-40
2023/09/30 07:34:55;;;;;;;;;;;;;;;31.30;68.49;100766.19;5015592;28;66675;-39
2023/09/30 07:37:25;;;;;;;;;;;;;;;31.30;68.66;100766.19;5004923;28;68944;-40
2023/09/30 07:39:55;;;;;;;;;;;;;;;31.32;68.66;100769.50;5024190;28;66429;-40
2023/09/30 07:42:25;;;;;;;;;;;;;;;31.29;68.91;100762.66;5018832;28;70237;-39
2023/09/30 07:44:55;;;;;;;;;;;;;;;31.38;68.60;100757.78;5024582;28;66724;-39
2023/09/30 07:47:25;;;;;;;;;;;;;;;31.52;68.21;100756.56;5020493;28;70195;-40
2023/09/30 07:49:55;;;;;;;;;;;;;;;31.58;67.45;100752.94;5017146;28;66002;-39
2023/09/30 07:52:26;;;;;;;;;;;;;;;31.56;67.81;100755.03;5013418;28;70580;-40
2023/09/30 07:54:55;;;;;;;;;;;;;;;31.61;68.17;100757.91;5018471;28;67626;-39
2023/09/30 07:57:25;;;;;;;;;;;;;;;31.63;68.31;100756.88;5021372;28;70345;-39
2023/09/30 07:59:56;;;;;;;;;;;;;;;31.60;68.12;100755.44;5022817;28;66295;-40
2023/09/30 08:02:32;;;;;;;;;;;;;;;31.65;68.21;100752.88;5014480;28;70292;-40
2023/09/30 08:05:03;;;;;;;;;;;;;;;31.68;67.97;100754.28;5012941;28;65542;-40
2023/09/30 08:07:33;;;;;;;;;;;;;;;31.70;67.76;100746.75;5020309;28;70423;-39
2023/09/30 08:10:06;;;;;;;;;;;;;;;31.73;67.40;100744.41;5017548;28;66591;-40
2023/09/30 08:12:36;;;;;;;;;;;;;;;31.72;67.29;100736.50;5018582;28;71052;-40
2023/09/30 08:15:06;;;;;;;;;;;;;;;31.70;67.82;100735.91;5008303;28;66596;-41
2023/09/30 08:17:36;;;;;;;;;;;;;;;31.75;67.73;100736.84;5018621;28;69706;-40
2023/09/30 08:20:06;;;;;;;;;;;;;;;31.78;68.17;100738.28;5015246;28;65629;-40
2023/09/30 08:22:36;;;;;;;;;;;;;;;31.80;68.28;100733.47;5018942;28;69177;-40
2023/09/30 08:25:06;;;;;;;;;;;;;;;31.82;68.55;100740.31;5017840;28;66916;-41
2023/09/30 08:27:36;;;;;;;;;;;;;;;31.81;68.88;100737.81;5018323;28;70772;-41
2023/09/30 08:30:06;;;;;;;;;;;;;;;31.85;68.84;100733.59;5023045;28;65991;-40
2023/09/30 08:32:36;;;;;;;;;;;;;;;31.85;69.09;100736.31;5012196;28;69947;-40
2023/09/30 08:35:07;;;;;;;;;;;;;;;31.84;69.43;100740.06;5013114;28;66126;-39
2023/09/30 08:37:37;;;;;;;;;;;;;;;31.84;69.39;100734.66;5012057;28;70304;-40
2023/09/30 08:40:09;;;;;;;;;;;;;;;31.88;69.12;100732.31;5021534;28;66130;-40
2023/09/30 08:42:39;;;;;;;;;;;;;;;31.88;68.88;100735.84;5018014;28;69466;-40
2023/09/30 08:45:14;;;;;;;;;;;;;;;31.90;68.56;100728.31;5026581;28;66812;-41
2023/09/30 08:47:45;;;;;;;;;;;;;;;31.92;68.79;100725.41;5011095;28;71025;-40
2023/09/30 08:50:16;;;;;;;;;;;;;;;31.96;69.31;100718.47;5019573;28;66449;-40
2023/09/30 08:52:46;;;;;;;;;;;;;;;31.94;70.18;100707.84;5015663;28;70806;-40
2023/09/30 08:55:16;;;;;;;;;;;;;;;31.94;70.16;100702.41;5009582;28;66710;-39
2023/09/30 08:57:46;;;;;;;;;;;;;;;31.91;70.01;100705.59;5022711;28;70100;-40
2023/09/30 09:00:16;;;;;;;;;;;;;;;31.96;69.97;100705.72;5017867;28;66615;-44
2023/09/30 09:02:47;;;;;;;;;;;;;;;31.96;70.16;100699.47;5016627;28;70356;-41
2023/09/30 09:05:17;;;;;;;;;;;;;;;31.98;70.33;100687.34;5017604;28;66636;-41
2023/09/30 09:07:47;;;;;;;;;;;;;;;31.97;70.43;100685.66;5023353;28;70179;-39
2023/09/30 09:10:18;;;;;;;;;;;;;;;32.01;70.50;100678.72;5013831;28;67225;-40
2023/09/30 09:12:55;;;;;;;;;;;;;;;32.01;70.42;100667.88;5015076;28;69077;-39
2023/09/30 09:15:26;;;;;;;;;;;;;;;32.02;70.80;100683.09;5016958;28;67265;-39
2023/09/30 09:17:55;;;;;;;;;;;;;;;32.06;70.53;100678.00;5022420;28;70370;-39
2023/09/30 09:20:26;;;;;;;;;;;;;;;32.02;71.39;100672.22;5019192;28;66239;-39
2023/09/30 09:22:58;;;;;;;;;;;;;;;32.06;71.50;100678.00;5013539;28;69930;-44
2023/09/30 09:25:28;;;;;;;;;;;;;;;32.03;70.53;100682.00;5028057;28;66353;-40
2023/09/30 09:27:58;;;;;;;;;;;;;;;32.05;69.73;100681.78;5024308;28;70356;-40
2023/09/30 09:30:29;;;;;;;;;;;;;;;32.03;69.89;100667.63;5017288;28;65242;-40
2023/09/30 09:32:59;;;;;;;;;;;;;;;32.08;70.04;100669.66;5022943;28;69881;-40
2023/09/30 09:35:30;;;;;;;;;;;;;;;32.04;70.00;100670.13;5031819;28;66326;-39
2023/09/30 09:38:02;;;;;;;;;;;;;;;32.10;70.25;100673.78;5013500;28;70889;-39
2023/09/30 09:40:33;;;;;;;;;;;;;;;32.08;70.24;100675.91;5029349;28;66037;-39
2023/09/30 09:43:05;;;;;;;;;;;;;;;32.16;70.21;100680.16;5020461;28;69466;-39
2023/09/30 09:45:37;;;;;;;;;;;;;;;32.17;70.38;100676.38;5013418;28;66557;-39
2023/09/30 09:48:09;;;;;;;;;;;;;;;32.19;69.69;100668.84;5014195;28;69718;-39
2023/09/30 09:50:42;;;;;;;;;;;;;;;32.21;69.85;100685.72;5011866;28;66031;-39
2023/09/30 09:53:14;;;;;;;;;;;;;;;32.21;70.12;100674.88;5017053;28;69954;-40
2023/09/30 09:55:44;;;;;;;;;;;;;;;32.25;70.36;100670.59;5025947;28;66978;-39
2023/09/30 09:58:14;;;;;;;;;;;;;;;32.35;70.30;100681.72;5016064;28;70610;-40
2023/09/30 10:00:45;;;;;;;;;;;;;;;32.47;69.90;100682.56;5025226;28;66902;-40
2023/09/30 10:03:15;;;;;;;;;;;;;;;32.55;69.56;100680.56;5021428;28;70041;-40
2023/09/30 10:05:45;;;;;;;;;;;;;;;32.61;69.21;100679.63;5021852;28;66629;-40
2023/09/30 10:08:17;;;;;;;;;;;;;;;32.63;68.99;100683.75;5019439;28;69237;-40
2023/09/30 10:10:48;;;;;;;;;;;;;;;32.69;68.66;100681.97;5012983;28;65996;-40
2023/09/30 10:13:36;;;;;;;;;;;;;;;32.70;68.64;100683.63;4988612;28;68769;-40
2023/09/30 10:16:06;;;;;;;;;;;;;;;32.72;68.55;100689.66;5010510;28;66052;-39
2023/09/30 10:18:55;;;;;;;;;;;;;;;32.74;68.48;100689.44;5007581;28;70119;-40
2023/09/30 10:21:25;;;;;;;;;;;;;;;32.73;68.53;100683.13;5006828;28;66993;-39
2023/09/30 10:24:15;;;;;;;;;;;;;;;32.74;68.49;100684.81;5008771;28;70515;-39
2023/09/30 10:26:45;;;;;;;;;;;;;;;32.74;68.49;100692.97;5015331;28;66239;-40
2023/09/30 10:29:14;;;;;;;;;;;;;;;32.75;68.30;100680.19;5015238;28;69589;-39
2023/09/30 10:31:50;;;;;;;;;;;;;;;32.73;68.39;100685.84;5012876;28;67100;-40
2023/09/30 10:34:21;;;;;;;;;;;;;;;32.75;68.18;100680.19;5011363;28;69843;-41
2023/09/30 10:36:52;;;;;;;;;;;;;;;32.73;68.32;100675.00;5006511;28;66570;-40
2023/09/30 10:39:41;;;;;;;;;;;;;;;32.72;68.40;100676.06;5008398;28;70288;-39
2023/09/30 10:42:31;;;;;;;;;;;;;;;32.71;68.16;100680.69;5010518;28;66693;-40
2023/09/30 10:45:01;;;;;;;;;;;;;;;32.69;68.16;100671.94;5016851;28;69875;-39
2023/09/30 10:47:34;;;;;;;;;;;;;;;32.66;68.31;100672.41;5008896;28;66852;-41
2023/09/30 10:50:04;;;;;;;;;;;;;;;32.67;68.35;100678.66;5007525;28;69781;-40
2023/09/30 10:52:34;;;;;;;;;;;;;;;32.66;68.29;100679.75;5008042;28;66206;-41
2023/09/30 10:55:06;;;;;;;;;;;;;;;32.64;68.31;100696.25;5004955;28;70447;-40
2023/09/30 10:57:37;;;;;;;;;;;;;;;32.64;68.44;100677.25;5011691;28;66543;-40
2023/09/30 11:00:08;;;;;;;;;;;;;;;32.62;68.41;100675.81;5021743;28;71925;-39
2023/09/30 11:02:54;;;;;;;;;;;;;;;32.61;68.23;100685.06;5024049;28;66934;-38
2023/09/30 11:05:28;;;;;;;;;;;;;;;32.59;68.33;100681.75;5018348;28;69410;-41
2023/09/30 11:08:22;;;;;;;;;;;;;;;32.57;68.57;100689.28;5016453;28;66751;-40
2023/09/30 11:10:53;;;;;;;;;;;;;;;32.56;68.31;100679.50;5015501;28;69883;-39
2023/09/30 11:13:23;;;;;;;;;;;;;;;32.55;68.43;100688.72;5012942;28;66736;-39
2023/09/30 11:16:04;;;;;;;;;;;;;;;32.53;68.25;100682.69;5013155;28;70055;-40
2023/09/30 11:18:37;;;;;;;;;;;;;;;32.51;68.62;100687.53;5015901;28;65420;-39
2023/09/30 11:21:09;;;;;;;;;;;;;;;32.49;68.55;100702.16;5019387;28;70499;-40
2023/09/30 11:23:41;;;;;;;;;;;;;;;32.45;68.32;100692.78;5018676;28;64939;-41
2023/09/30 11:26:13;;;;;;;;;;;;;;;32.44;68.63;100703.91;5014752;28;70351;-39
2023/09/30 11:28:45;;;;;;;;;;;;;;;32.43;68.54;100703.09;5008822;28;65871;-40
2023/09/30 11:31:17;;;;;;;;;;;;;;;32.41;68.55;100702.50;5007139;28;70075;-41
2023/09/30 11:33:56;;;;;;;;;;;;;;;32.37;68.83;100712.16;5021553;28;65977;-39
2023/09/30 11:36:26;;;;;;;;;;;;;;;32.35;69.02;100718.91;5021450;28;70784;-39
2023/09/30 11:38:56;;;;;;;;;;;;;;;32.34;68.95;100726.19;5010024;28;65745;-39
2023/09/30 11:41:33;;;;;;;;;;;;;;;32.32;68.98;100728.34;5022838;28;71167;-39
2023/09/30 11:44:07;;;;;;;;;;;;;;;32.31;69.08;100728.56;5017303;28;66585;-40
2023/09/30 11:46:54;;;;;;;;;;;;;;;32.29;69.07;100717.94;5020765;28;69348;-39
2023/09/30 11:49:34;;;;;;;;;;;;;;;32.25;69.42;100716.75;5023653;28;66848;-40
2023/09/30 11:52:09;;;;;;;;;;;;;;;32.25;69.00;100724.88;5017169;28;70352;-40
2023/09/30 11:54:44;;;;;;;;;;;;;;;32.24;69.21;100728.66;5024373;28;67063;-39
2023/09/30 11:57:18;;;;;;;;;;;;;;;32.22;69.08;100728.06;5015006;28;70799;-40
2023/09/30 11:59:48;;;;;;;;;;;;;;;32.20;69.26;100749.19;5022838;28;66709;-40
2023/09/30 12:02:18;;;;;;;;;;;;;;;32.18;69.18;100745.88;5005005;28;69960;-41
2023/09/30 12:04:47;;;;;;;;;;;;;;;32.17;69.30;100749.66;5022571;28;66784;-38
2023/09/30 12:07:18;;;;;;;;;;;;;;;32.14;69.40;100755.53;5023702;28;70253;-48
2023/09/30 12:09:48;;;;;;;;;;;;;;;32.12;69.25;100765.78;5036160;28;66709;-39
2023/09/30 12:12:18;;;;;;;;;;;;;;;32.11;69.60;100766.88;5010459;28;70632;-39
2023/09/30 12:14:50;;;;;;;;;;;;;;;32.09;69.43;100777.13;5020713;28;66675;-40
2023/09/30 12:17:22;;;;;;;;;;;;;;;32.08;69.59;100784.44;5018224;28;70445;-39
2023/09/30 12:19:52;;;;;;;;;;;;;;;32.07;69.68;100776.50;5016550;28;65972;-39
2023/09/30 12:22:22;;;;;;;;;;;;;;;32.04;69.61;100789.50;5016615;28;69751;-41
2023/09/30 12:24:52;;;;;;;;;;;;;;;32.02;69.63;100791.59;5016721;28;66482;-39
2023/09/30 12:27:21;;;;;;;;;;;;;;;32.00;69.46;100801.03;5022928;28;69973;-41
2023/09/30 12:29:51;;;;;;;;;;;;;;;31.98;69.67;100795.84;5016786;28;66487;-40
2023/09/30 12:32:23;;;;;;;;;;;;;;;31.96;69.68;100797.97;5033693;28;69311;-40
2023/09/30 12:34:53;;;;;;;;;;;;;;;31.95;69.59;100804.44;5023512;28;66655;-41
2023/09/30 12:37:23;;;;;;;;;;;;;;;31.94;69.57;100810.91;5021227;28;70349;-40
2023/09/30 12:39:53;;;;;;;;;;;;;;;31.92;69.89;100806.78;5021644;28;66978;-40
2023/09/30 12:42:23;;;;;;;;;;;;;;;31.90;69.73;100812.41;5020499;28;69505;-39
2023/09/30 12:44:53;;;;;;;;;;;;;;;31.90;69.81;100815.13;5017081;28;66602;-40
2023/09/30 12:47:22;;;;;;;;;;;;;;;31.87;70.18;100823.69;5032749;28;70310;-40
2023/09/30 12:49:54;;;;;;;;;;;;;;;31.87;69.76;100831.84;5024310;28;66826;-40
2023/09/30 12:52:24;;;;;;;;;;;;;;;31.85;69.70;100833.97;5021929;28;69425;-40
2023/09/30 12:54:54;;;;;;;;;;;;;;;31.85;69.76;100841.28;5017553;28;66369;-41